createdAt,value
2023-01-21T00:01:21.674Z,21.83
2023-01-21T00:03:48.726Z,18.90
2023-01-21T00:06:15.786Z,19.67
2023-01-21T00:08:42.593Z,20.60
2023-01-21T00:11:14.454Z,20.60
2023-01-21T00:13:42.828Z,21.00
2023-01-21T00:16:10.342Z,21.50
2023-01-21T00:18:37.131Z,21.60
2023-01-21T00:21:04.046Z,20.30
2023-01-21T00:23:30.906Z,21.00
2023-01-21T00:26:00.565Z,21.23
2023-01-21T00:28:33.080Z,21.30
2023-01-21T00:31:02.068Z,22.43
2023-01-21T00:33:30.886Z,19.97
2023-01-21T00:35:59.827Z,19.53
2023-01-21T00:38:26.551Z,20.67
2023-01-21T00:40:53.230Z,20.20
2023-01-21T00:43:21.179Z,20.27
2023-01-21T00:45:48.018Z,19.70
2023-01-21T00:48:14.778Z,20.20
2023-01-21T00:50:41.840Z,19.17
2023-01-21T00:53:08.601Z,18.57
2023-01-21T00:55:35.373Z,18.90
2023-01-21T00:58:02.194Z,19.07
2023-01-21T01:00:29.151Z,18.33
2023-01-21T01:02:55.985Z,17.40
2023-01-21T01:05:22.799Z,17.67
2023-01-21T01:07:50.505Z,17.97
2023-01-21T01:10:17.915Z,19.00
2023-01-21T01:12:44.846Z,17.10
2023-01-21T01:15:11.945Z,17.90
2023-01-21T01:17:38.666Z,17.90
2023-01-21T01:20:06.762Z,18.60
2023-01-21T01:22:33.577Z,17.60
2023-01-21T01:25:00.359Z,18.37
2023-01-21T01:27:27.153Z,19.47
2023-01-21T01:29:53.862Z,16.57
2023-01-21T01:32:20.544Z,17.83
2023-01-21T01:34:47.297Z,16.97
2023-01-21T01:37:13.987Z,15.70
2023-01-21T01:39:43.016Z,16.23
2023-01-21T01:42:15.769Z,16.67
2023-01-21T01:45:07.396Z,16.67
2023-01-21T01:47:49.005Z,15.30
2023-01-21T01:50:28.794Z,15.23
2023-01-21T01:52:57.705Z,15.23
2023-01-21T01:55:24.641Z,17.33
2023-01-21T01:57:55.364Z,17.00
2023-01-21T02:00:24.828Z,16.33
2023-01-21T02:03:12.988Z,15.47
2023-01-21T02:05:42.604Z,14.13
2023-01-21T02:08:10.904Z,15.50
2023-01-21T02:10:37.666Z,15.03
2023-01-21T02:13:05.166Z,16.43
2023-01-21T02:15:58.012Z,15.57
2023-01-21T02:18:42.891Z,16.63
2023-01-21T02:21:46.125Z,15.40
2023-01-21T02:24:55.824Z,14.80
2023-01-21T02:27:55.761Z,14.90
2023-01-21T02:31:02.018Z,15.50
2023-01-21T02:34:05.016Z,15.20
2023-01-21T02:36:50.096Z,14.27
2023-01-21T02:40:03.025Z,14.47
2023-01-21T02:42:46.737Z,14.83
2023-01-21T02:45:53.327Z,15.43
2023-01-21T02:48:40.519Z,14.83
2023-01-21T02:51:07.349Z,14.23
2023-01-21T02:53:36.616Z,15.20
2023-01-21T02:56:12.306Z,14.70
2023-01-21T02:58:46.302Z,14.93
2023-01-21T03:01:37.419Z,14.90
2023-01-21T03:04:32.240Z,15.63
2023-01-21T03:07:21.337Z,16.63
2023-01-21T03:09:49.097Z,14.93
2023-01-21T03:12:39.270Z,15.00
2023-01-21T03:15:42.874Z,14.63
2023-01-21T03:18:22.940Z,15.83
2023-01-21T03:21:03.775Z,14.97
2023-01-21T03:23:37.704Z,14.97
2023-01-21T03:26:07.712Z,14.87
2023-01-21T03:28:44.614Z,15.73
2023-01-21T03:31:29.130Z,16.00
2023-01-21T03:34:02.865Z,15.37
2023-01-21T03:37:02.121Z,13.93
2023-01-21T03:39:59.597Z,15.90
2023-01-21T03:42:27.571Z,15.40
2023-01-21T03:44:54.852Z,13.70
2023-01-21T03:47:35.531Z,15.67
2023-01-21T03:50:14.668Z,15.17
2023-01-21T03:52:44.412Z,14.43
2023-01-21T03:55:16.053Z,14.97
2023-01-21T03:57:42.850Z,13.73
2023-01-21T04:00:10.679Z,15.40
2023-01-21T04:02:37.395Z,14.63
2023-01-21T04:05:04.478Z,16.27
2023-01-21T04:07:31.407Z,15.33
2023-01-21T04:09:58.186Z,16.17
2023-01-21T04:12:24.963Z,15.87
2023-01-21T04:14:51.685Z,16.60
2023-01-21T04:17:18.403Z,15.63
2023-01-21T04:19:45.219Z,16.63
2023-01-21T04:22:12.320Z,15.07
2023-01-21T04:24:39.086Z,15.73
2023-01-21T04:27:05.928Z,15.33
2023-01-21T04:29:32.628Z,15.10
2023-01-21T04:31:59.456Z,16.80
2023-01-21T04:34:26.200Z,15.00
2023-01-21T04:36:53.019Z,14.83
2023-01-21T04:39:19.798Z,13.87
2023-01-21T04:41:46.588Z,16.07
2023-01-21T04:44:13.309Z,14.80
2023-01-21T04:46:57.352Z,14.67
2023-01-21T04:49:24.114Z,13.33
2023-01-21T04:51:50.800Z,14.13
2023-01-21T04:54:20.192Z,15.03
2023-01-21T04:56:47.102Z,14.47
2023-01-21T04:59:13.967Z,14.10
2023-01-21T05:01:40.734Z,14.87
2023-01-21T05:04:07.473Z,15.40
2023-01-21T05:06:34.204Z,15.20
2023-01-21T05:09:00.950Z,15.30
2023-01-21T05:11:29.745Z,14.67
2023-01-21T05:13:56.481Z,14.43
2023-01-21T05:16:23.364Z,15.47
2023-01-21T05:18:50.128Z,14.70
2023-01-21T05:21:16.895Z,16.43
2023-01-21T05:23:43.610Z,15.90
2023-01-21T05:26:10.375Z,16.27
2023-01-21T05:28:37.114Z,15.20
2023-01-21T05:31:09.076Z,16.37
2023-01-21T05:33:36.166Z,14.50
2023-01-21T05:36:04.605Z,14.63
2023-01-21T05:38:31.461Z,15.00
2023-01-21T05:41:03.533Z,15.80
2023-01-21T05:43:30.808Z,14.73
2023-01-21T05:46:00.165Z,14.70
2023-01-21T05:48:29.060Z,16.20
2023-01-21T05:50:58.181Z,15.80
2023-01-21T05:53:26.059Z,13.43
2023-01-21T05:55:54.919Z,15.00
2023-01-21T05:58:23.587Z,14.77
2023-01-21T06:00:51.158Z,14.73
2023-01-21T06:03:18.901Z,14.40
2023-01-21T06:05:46.903Z,15.97
2023-01-21T06:08:14.059Z,14.87
2023-01-21T06:10:41.221Z,14.90
2023-01-21T06:13:11.472Z,14.90
2023-01-21T06:15:38.410Z,13.90
2023-01-21T06:18:07.563Z,16.00
2023-01-21T06:20:34.501Z,15.33
2023-01-21T06:23:03.486Z,16.07
2023-01-21T06:25:30.780Z,17.50
2023-01-21T06:27:58.501Z,16.47
2023-01-21T06:30:26.240Z,17.67
2023-01-21T06:32:53.388Z,18.00
2023-01-21T06:35:20.362Z,18.40
2023-01-21T06:37:47.949Z,19.00
2023-01-21T06:40:15.256Z,18.43
2023-01-21T06:42:49.300Z,18.07
2023-01-21T06:45:16.933Z,17.27
2023-01-21T06:47:45.068Z,18.17
2023-01-21T06:50:16.342Z,18.67
2023-01-21T06:52:46.979Z,19.70
2023-01-21T06:55:15.168Z,18.70
2023-01-21T06:57:43.552Z,18.77
2023-01-21T07:00:12.210Z,20.10
2023-01-21T07:02:39.016Z,17.83
2023-01-21T07:05:06.788Z,17.77
2023-01-21T07:07:33.569Z,17.77
2023-01-21T07:10:00.271Z,17.67
2023-01-21T07:12:27.052Z,17.70
2023-01-21T07:14:53.785Z,16.50
2023-01-21T07:17:21.488Z,18.70
2023-01-21T07:19:48.178Z,18.37
2023-01-21T07:22:16.176Z,18.13
2023-01-21T07:24:42.921Z,18.07
2023-01-21T07:27:09.997Z,18.60
2023-01-21T07:29:36.802Z,18.43
2023-01-21T07:32:04.143Z,20.00
2023-01-21T07:34:30.962Z,19.50
2023-01-21T07:36:57.680Z,18.77
2023-01-21T07:39:24.897Z,18.47
2023-01-21T07:41:51.644Z,18.23
2023-01-21T07:44:18.404Z,17.63
2023-01-21T07:46:45.115Z,16.90
2023-01-21T07:49:17.087Z,17.83
2023-01-21T07:51:47.807Z,18.60
2023-01-21T07:54:15.633Z,16.80
2023-01-21T07:56:42.505Z,17.53
2023-01-21T07:59:11.284Z,19.57
2023-01-21T08:01:38.186Z,19.57
2023-01-21T08:04:07.048Z,17.43
2023-01-21T08:06:33.892Z,16.57
2023-01-21T08:09:00.689Z,18.13
2023-01-21T08:11:27.432Z,17.73
2023-01-21T08:13:58.596Z,16.77
2023-01-21T08:16:25.448Z,18.30
2023-01-21T08:18:52.185Z,17.20
2023-01-21T08:21:20.809Z,16.57
2023-01-21T08:23:47.579Z,17.70
2023-01-21T08:26:14.493Z,18.30
2023-01-21T08:28:41.363Z,17.83
2023-01-21T08:31:13.017Z,18.27
2023-01-21T08:33:39.956Z,18.93
2023-01-21T08:36:08.644Z,17.67
2023-01-21T08:38:35.800Z,18.37
2023-01-21T08:41:02.663Z,18.23
2023-01-21T08:43:29.687Z,18.40
2023-01-21T08:45:58.505Z,18.33
2023-01-21T08:48:25.539Z,18.20
2023-01-21T08:50:52.303Z,17.83
2023-01-21T08:53:19.627Z,18.57
2023-01-21T08:55:46.352Z,16.80
2023-01-21T08:58:13.169Z,18.00
2023-01-21T09:00:42.012Z,18.90
2023-01-21T09:03:08.804Z,18.70
2023-01-21T09:05:35.760Z,17.53
2023-01-21T09:08:02.651Z,18.20
2023-01-21T09:10:47.861Z,17.97
2023-01-21T09:13:16.182Z,16.80
2023-01-21T09:15:44.151Z,18.23
2023-01-21T09:18:13.829Z,18.20
2023-01-21T09:20:41.151Z,19.30
2023-01-21T09:23:27.604Z,18.10
2023-01-21T09:26:03.774Z,18.00
2023-01-21T09:28:34.207Z,18.90
2023-01-21T09:31:05.092Z,18.67
2023-01-21T09:33:34.366Z,18.00
2023-01-21T09:36:05.185Z,18.57
2023-01-21T09:38:32.369Z,19.20
2023-01-21T09:41:18.183Z,21.33
2023-01-21T09:43:57.052Z,17.87
2023-01-21T09:46:44.844Z,18.67
2023-01-21T09:49:42.480Z,18.10
2023-01-21T09:52:24.965Z,19.57
2023-01-21T09:54:51.891Z,19.87
2023-01-21T09:57:58.633Z,21.33
2023-01-21T10:00:37.376Z,20.70
2023-01-21T10:03:26.201Z,19.97
2023-01-21T10:05:52.891Z,20.17
2023-01-21T10:08:51.381Z,18.47
2023-01-21T10:11:59.296Z,18.83
2023-01-21T10:15:00.230Z,20.23
2023-01-21T10:17:50.419Z,19.20
2023-01-21T10:20:37.708Z,21.13
2023-01-21T10:23:43.100Z,21.73
2023-01-21T10:26:30.772Z,22.20
2023-01-21T10:28:57.774Z,20.33
2023-01-21T10:31:29.035Z,20.37
2023-01-21T10:33:57.367Z,20.60
2023-01-21T10:37:19.225Z,22.80
2023-01-21T10:39:51.479Z,20.03
2023-01-21T10:43:09.823Z,18.70
2023-01-21T10:46:09.083Z,18.53
2023-01-21T10:49:21.696Z,19.43
2023-01-21T10:52:15.790Z,19.87
2023-01-21T10:55:00.645Z,17.73
2023-01-21T10:57:55.085Z,20.43
2023-01-21T11:00:38.172Z,20.80
2023-01-21T11:03:19.805Z,20.63
2023-01-21T11:05:49.750Z,18.20
2023-01-21T11:08:24.753Z,17.73
2023-01-21T11:10:55.237Z,16.73
2023-01-21T11:13:23.637Z,19.77
2023-01-21T11:15:57.664Z,18.87
2023-01-21T11:18:37.645Z,18.10
2023-01-21T11:21:25.839Z,19.17
2023-01-21T11:24:02.000Z,16.37
2023-01-21T11:26:35.376Z,17.53
2023-01-21T11:29:18.418Z,18.00
2023-01-21T11:31:52.567Z,18.50
2023-01-21T11:34:25.308Z,16.83
2023-01-21T11:37:01.339Z,18.43
2023-01-21T11:39:47.059Z,18.37
2023-01-21T11:42:19.548Z,18.50
2023-01-21T11:45:04.364Z,17.07
2023-01-21T11:48:21.658Z,17.80
2023-01-21T11:50:48.620Z,16.63
2023-01-21T11:53:18.492Z,18.00
2023-01-21T11:55:52.309Z,17.47
2023-01-21T11:58:36.061Z,17.60
2023-01-21T12:01:18.943Z,17.73
2023-01-21T12:03:54.827Z,17.23
2023-01-21T12:06:26.599Z,16.50
2023-01-21T12:09:00.186Z,21.33
2023-01-21T12:11:30.882Z,37.13
2023-01-21T12:14:11.383Z,25.30
2023-01-21T12:17:06.502Z,20.53
2023-01-21T12:20:25.000Z,18.50
2023-01-21T12:23:30.810Z,16.90
2023-01-21T12:26:34.274Z,17.63
2023-01-21T12:29:29.931Z,17.93
2023-01-21T12:32:12.279Z,19.83
2023-01-21T12:34:58.216Z,16.47
2023-01-21T12:37:37.945Z,17.37
2023-01-21T12:40:22.579Z,17.67
2023-01-21T12:42:56.415Z,17.17
2023-01-21T12:45:32.443Z,17.13
2023-01-21T12:48:15.378Z,17.50
2023-01-21T12:51:08.557Z,17.67
2023-01-21T12:54:29.265Z,18.03
2023-01-21T12:57:23.745Z,17.13
2023-01-21T13:00:11.884Z,16.23
2023-01-21T13:02:49.374Z,16.07
2023-01-21T13:05:40.229Z,17.83
2023-01-21T13:08:53.356Z,16.57
2023-01-21T13:11:57.815Z,16.33
2023-01-21T13:14:39.488Z,16.20
2023-01-21T13:17:23.861Z,17.27
2023-01-21T13:19:50.844Z,15.00
2023-01-21T13:22:31.812Z,17.70
2023-01-21T13:25:40.784Z,15.83
2023-01-21T13:28:38.129Z,16.20
2023-01-21T13:31:24.841Z,15.50
2023-01-21T13:34:23.422Z,16.10
2023-01-21T13:37:29.331Z,16.43
2023-01-21T13:40:59.387Z,14.47
2023-01-21T13:44:20.026Z,15.10
2023-01-21T13:47:10.589Z,15.23
2023-01-21T13:49:56.220Z,16.60
2023-01-21T13:53:08.671Z,16.77
2023-01-21T13:56:05.188Z,15.37
2023-01-21T13:59:09.828Z,15.93
2023-01-21T14:01:45.603Z,15.97
2023-01-21T14:04:33.353Z,15.80
2023-01-21T14:07:30.869Z,14.53
2023-01-21T14:10:15.270Z,13.83
2023-01-21T14:13:23.681Z,12.83
2023-01-21T14:16:46.412Z,13.70
2023-01-21T14:19:55.727Z,13.93
2023-01-21T14:23:06.166Z,12.60
2023-01-21T14:25:55.530Z,12.77
2023-01-21T14:28:49.448Z,13.37
2023-01-21T14:31:25.861Z,13.77
2023-01-21T14:34:27.333Z,14.03
2023-01-21T14:37:28.549Z,12.60
2023-01-21T14:40:17.572Z,12.40
2023-01-21T14:42:50.918Z,10.80
2023-01-21T14:45:25.830Z,11.50
2023-01-21T14:47:58.281Z,11.40
2023-01-21T14:50:48.337Z,11.17
2023-01-21T14:53:26.868Z,11.30
2023-01-21T14:56:31.665Z,11.33
2023-01-21T14:59:33.679Z,10.93
2023-01-21T15:02:31.082Z,11.77
2023-01-21T15:05:02.497Z,11.83
2023-01-21T15:07:37.983Z,11.37
2023-01-21T15:10:21.818Z,11.30
2023-01-21T15:13:02.327Z,12.63
2023-01-21T15:16:18.467Z,11.67
2023-01-21T15:19:09.117Z,11.50
2023-01-21T15:21:42.627Z,10.47
2023-01-21T15:24:25.821Z,10.43
2023-01-21T15:27:22.573Z,9.87
2023-01-21T15:29:58.460Z,10.67
2023-01-21T15:32:39.472Z,9.57
2023-01-21T15:35:35.483Z,11.13
2023-01-21T15:38:08.449Z,10.40
2023-01-21T15:41:02.521Z,9.87
2023-01-21T15:43:54.667Z,11.40
2023-01-21T15:46:30.972Z,10.83
2023-01-21T15:49:20.441Z,11.17
2023-01-21T15:52:27.858Z,9.93
2023-01-21T15:55:16.840Z,12.43
2023-01-21T15:58:28.433Z,10.53
2023-01-21T16:01:06.380Z,9.87
2023-01-21T16:03:56.411Z,10.83
2023-01-21T16:06:45.258Z,10.97
2023-01-21T16:09:48.615Z,12.87
2023-01-21T16:12:42.609Z,12.30
2023-01-21T16:15:36.621Z,17.38
2023-01-21T16:18:36.191Z,13.57
2023-01-21T16:21:04.951Z,12.97
2023-01-21T16:23:49.557Z,12.63
2023-01-21T16:26:32.993Z,12.33
2023-01-21T16:29:01.200Z,12.57
2023-01-21T16:31:45.825Z,12.83
2023-01-21T16:34:13.310Z,13.30
2023-01-21T16:36:43.249Z,13.40
2023-01-21T16:39:11.621Z,15.33
2023-01-21T16:41:39.920Z,13.70
2023-01-21T16:44:16.559Z,13.30
2023-01-21T16:46:46.376Z,13.53
2023-01-21T16:49:17.176Z,15.77
2023-01-21T16:52:00.753Z,16.57
2023-01-21T16:54:32.715Z,14.70
2023-01-21T16:57:17.128Z,14.00
2023-01-21T16:59:57.800Z,15.57
2023-01-21T17:02:37.966Z,16.23
2023-01-21T17:05:11.837Z,16.03
2023-01-21T17:08:13.610Z,14.83
2023-01-21T17:11:03.801Z,14.47
2023-01-21T17:13:51.910Z,15.40
2023-01-21T17:16:35.136Z,14.57
2023-01-21T17:19:49.484Z,13.57
2023-01-21T17:22:43.959Z,15.07
2023-01-21T17:25:36.632Z,15.13
2023-01-21T17:28:31.779Z,15.70
2023-01-21T17:31:16.896Z,17.13
2023-01-21T17:33:44.672Z,15.33
2023-01-21T17:36:16.052Z,15.37
2023-01-21T17:38:46.406Z,15.30
2023-01-21T17:41:28.208Z,15.60
2023-01-21T17:43:56.700Z,14.50
2023-01-21T17:46:24.695Z,14.00
2023-01-21T17:48:58.681Z,14.30
2023-01-21T17:51:30.016Z,14.43
2023-01-21T17:54:04.733Z,14.23
2023-01-21T17:56:48.988Z,14.57
2023-01-21T17:59:54.043Z,16.53
2023-01-21T18:02:34.224Z,14.13
2023-01-21T18:05:01.032Z,14.07
2023-01-21T18:07:32.304Z,14.47
2023-01-21T18:10:02.644Z,15.43
2023-01-21T18:12:29.595Z,15.13
2023-01-21T18:14:56.304Z,14.63
2023-01-21T18:17:25.214Z,15.73
2023-01-21T18:19:52.291Z,16.80
2023-01-21T18:22:29.042Z,15.73
2023-01-21T18:24:56.342Z,14.80
2023-01-21T18:27:25.963Z,14.27
2023-01-21T18:29:53.812Z,14.93
2023-01-21T18:32:20.790Z,14.63
2023-01-21T18:34:47.573Z,15.50
2023-01-21T18:37:18.505Z,15.03
2023-01-21T18:39:45.773Z,14.07
2023-01-21T18:42:16.662Z,13.13
2023-01-21T18:44:47.228Z,15.03
2023-01-21T18:47:17.989Z,16.07
2023-01-21T18:49:47.540Z,14.70
2023-01-21T18:52:19.684Z,14.60
2023-01-21T18:54:48.913Z,14.93
2023-01-21T18:57:26.389Z,15.83
2023-01-21T18:59:53.095Z,15.10
2023-01-21T19:02:23.664Z,15.77
2023-01-21T19:04:50.680Z,15.87
2023-01-21T19:07:23.121Z,14.47
2023-01-21T19:09:51.117Z,17.57
2023-01-21T19:12:22.874Z,15.97
2023-01-21T19:14:52.567Z,17.93
2023-01-21T19:17:30.764Z,17.93
2023-01-21T19:19:57.774Z,15.23
2023-01-21T19:22:24.907Z,17.47
2023-01-21T19:24:51.638Z,16.03
2023-01-21T19:27:29.363Z,16.83
2023-01-21T19:29:56.350Z,16.27
2023-01-21T19:32:23.211Z,14.37
2023-01-21T19:34:50.080Z,14.23
2023-01-21T19:37:22.675Z,13.87
2023-01-21T19:39:49.498Z,14.27
2023-01-21T19:42:17.827Z,13.53
2023-01-21T19:44:44.617Z,14.03
2023-01-21T19:47:29.230Z,16.27
2023-01-21T19:49:56.050Z,13.20
2023-01-21T19:52:22.828Z,13.20
2023-01-21T19:54:49.533Z,13.17
2023-01-21T19:57:17.203Z,16.73
2023-01-21T19:59:49.302Z,14.40
2023-01-21T20:02:16.077Z,14.50
2023-01-21T20:04:42.842Z,16.60
2023-01-21T20:07:15.469Z,15.73
2023-01-21T20:09:42.444Z,15.87
2023-01-21T20:12:12.645Z,13.47
2023-01-21T20:14:39.336Z,14.40
2023-01-21T20:17:06.229Z,16.20
2023-01-21T20:19:34.689Z,14.93
2023-01-21T20:22:02.874Z,17.37
2023-01-21T20:24:33.390Z,12.23
2023-01-21T20:27:05.156Z,13.77
2023-01-21T20:29:33.392Z,16.27
2023-01-21T20:32:00.229Z,15.97
2023-01-21T20:34:28.281Z,15.53
2023-01-21T20:36:55.645Z,16.53
2023-01-21T20:39:24.836Z,14.73
2023-01-21T20:41:51.530Z,14.87
2023-01-21T20:44:18.344Z,14.77
2023-01-21T20:46:45.839Z,14.23
2023-01-21T20:49:12.609Z,21.37
2023-01-21T20:51:39.432Z,15.70
2023-01-21T20:54:06.246Z,15.10
2023-01-21T20:56:34.088Z,14.53
2023-01-21T20:59:01.049Z,14.30
2023-01-21T21:01:29.207Z,15.97
2023-01-21T21:03:56.056Z,15.57
2023-01-21T21:06:27.916Z,14.57
2023-01-21T21:08:54.804Z,16.50
2023-01-21T21:11:21.932Z,15.57
2023-01-21T21:13:51.712Z,16.97
2023-01-21T21:16:28.596Z,17.00
2023-01-21T21:18:56.588Z,14.40
2023-01-21T21:21:24.335Z,16.07
2023-01-21T21:23:53.512Z,14.20
2023-01-21T21:26:29.334Z,16.10
2023-01-21T21:28:57.972Z,15.83
2023-01-21T21:31:27.747Z,17.23
2023-01-21T21:33:54.600Z,14.67
2023-01-21T21:36:26.395Z,13.83
2023-01-21T21:38:55.975Z,12.60
2023-01-21T21:41:44.226Z,13.80
2023-01-21T21:44:11.974Z,14.67
2023-01-21T21:46:58.040Z,15.30
2023-01-21T21:49:25.572Z,15.07
2023-01-21T21:51:54.600Z,15.20
2023-01-21T21:54:21.583Z,18.37
2023-01-21T21:56:48.466Z,16.50
2023-01-21T21:59:15.716Z,19.03
2023-01-21T22:01:43.876Z,17.77
2023-01-21T22:04:11.564Z,16.43
2023-01-21T22:06:38.996Z,16.37
2023-01-21T22:09:06.760Z,17.90
2023-01-21T22:11:33.595Z,16.70
2023-01-21T22:14:03.692Z,15.97
2023-01-21T22:16:31.822Z,16.77
2023-01-21T22:19:00.005Z,17.13
2023-01-21T22:21:33.242Z,17.97
2023-01-21T22:24:08.227Z,18.13
2023-01-21T22:26:35.918Z,18.13
2023-01-21T22:29:05.063Z,16.27
2023-01-21T22:31:33.617Z,17.37
2023-01-21T22:34:00.818Z,16.70
2023-01-21T22:36:30.454Z,16.70
2023-01-21T22:38:57.771Z,14.37
2023-01-21T22:41:25.133Z,15.47
2023-01-21T22:43:52.664Z,15.20
2023-01-21T22:46:26.783Z,12.80
2023-01-21T22:48:54.709Z,12.97
2023-01-21T22:51:25.045Z,13.07
2023-01-21T22:53:54.009Z,13.63
2023-01-21T22:56:49.650Z,12.90
2023-01-21T22:59:13.073Z,13.20
2023-01-21T23:01:40.719Z,11.57
2023-01-21T23:04:08.463Z,12.40
2023-01-21T23:06:37.649Z,12.83
2023-01-21T23:09:05.713Z,13.50
2023-01-21T23:11:36.301Z,11.87
2023-01-21T23:14:03.021Z,12.23
2023-01-21T23:16:29.756Z,12.27
2023-01-21T23:18:58.073Z,12.27
2023-01-21T23:21:24.869Z,11.63
2023-01-21T23:23:51.696Z,11.30
2023-01-21T23:26:19.494Z,10.40
2023-01-21T23:28:47.286Z,11.20
2023-01-21T23:31:17.214Z,10.60
2023-01-21T23:33:44.638Z,9.97
2023-01-21T23:36:13.770Z,10.47
2023-01-21T23:38:42.253Z,10.23
2023-01-21T23:41:12.893Z,8.90
2023-01-21T23:43:40.738Z,10.00
2023-01-21T23:46:16.200Z,10.03
2023-01-21T23:48:43.472Z,10.33
2023-01-21T23:51:14.402Z,10.10
2023-01-21T23:53:41.315Z,10.23
2023-01-21T23:56:21.343Z,9.43
2023-01-21T23:58:48.925Z,9.40
